Connecticut River @ Montague City, Ma

Connecticut River at Montague City
 Total Drainage Area: 7,865 sq. miles 
 Drainage Area Controlled by Corps Dams: 1,154 sq. miles (15%) 
 Warning Flow/Stage: 64,200 cfs / 25.0 feet 
 Flood Flow/Stage: 89,700 cfs / 30.0 feet 
Date Time
(Eastern)
Stage
(ft)
Flow
(cfs)
CSM
(cfs / sq. mi.)
Jun-25 12:15 am 13.11 17,870 2.3
Jun-24 11:15 pm 12.61 16,258 2.1
Jun-24 10:15 pm 13.23 18,278 2.3
Jun-24 09:15 pm 13.19 18,142 2.3
Jun-24 08:15 pm 13.19 18,142 2.3
Jun-24 07:15 pm 13.12 17,904 2.3
Jun-24 06:15 pm 13.23 18,278 2.3
Jun-24 05:15 pm 13.43 18,968 2.4
Jun-24 04:15 pm 13.30 18,518 2.4
Jun-24 03:15 pm 13.20 18,176 2.3
Jun-24 02:15 pm 13.19 18,142 2.3
Jun-24 01:15 pm 13.16 18,040 2.3
Jun-24 12:15 pm 12.91 17,210 2.2
Jun-24 11:15 am 13.00 17,500 2.2
Jun-24 10:15 am 12.93 17,274 2.2
Jun-24 09:15 am 12.71 16,572 2.1
Jun-24 08:15 am 12.41 15,637 2.0
Jun-24 07:15 am 12.08 14,638 1.9
Jun-24 06:15 am 11.35 12,549 1.6
Jun-24 05:15 am 11.43 12,770 1.6
Jun-24 04:15 am 11.49 12,938 1.6
Jun-24 03:15 am 11.51 12,994 1.7
Jun-24 02:15 am 11.45 12,826 1.6
Jun-24 01:15 am 11.51 12,994 1.7
Jun-24 12:15 am 11.58 13,190 1.7
Report Generated June 25, 2024 04:34 am